Lincoln, NE

8:57 PM CST on February 11, 2016 (GMT -0600)
Lincoln Municipal | | Change Station
CLOSE
Current Station
Airport
Location: Lincoln,
Elevation: 1188 ft
Nearby Weather Stations

Elev 1188 ft 40.85 °N, 96.76 °W | Updated 3 minutes ago

Overcast
Overcast
30 °F
Feels Like 26 °F
N
4
Wind Variable Wind from East

Today
High -- | Low -- °F
--% Chance of Precip.
Yesterday
High -- | Low -- °F
Precip. -- in
Pressure 30.24 in
Visibility 9.0 miles
Clouds Overcast 1400 ft
Windchill 26 °F
Dew Point 24 °F
Humidity 79%
Rainfall 0.00 in
Snow Depth Not available.
7:26 AM 5:56 PM
Waxing Crescent, 16% visible
METAR KLNK 120254Z 09003KT 9SM OVC014 M01/M04 A3019 RMK AO2 SLP239 T10111044 50003
Pressure 30.24 in
Visibility 9.0 miles
Clouds Overcast 1400 ft
Windchill 26 °F
Dew Point 24 °F
Humidity 79%
Rainfall 0.00 in
Snow Depth Not available.
7:26 AM 5:56 PM
Waxing Crescent, 16% visible
METAR KLNK 120254Z 09003KT 9SM OVC014 M01/M04 A3019 RMK AO2 SLP239 T10111044 50003

10-Day Weather Forecast

Almanac

Astronomy

Feb. 11, 2016 Rise Set
Actual Time
Civil Twilight
Nautical Twilight
Astronomical Twilight
Moon
Length of Visible Light
Length of Day
Tomorrow will be .
, % of the Moon is Illuminated

Today's Extremes

State Highs State Lows

Community

WunderPhotos

Upload Photos

1,892,226 photos uploaded!

WunderBlog® & News

Nearby

Air Quality

  Air Quality AQ Index Pollutant
Not available.

Snow Depth

Station Depth Elevation

Earthquake Activity

City Distance Mag. Time & Date
Minimum magnitude displayed is 2.5.

Coastal Water Temperatures

Place Temperature

Stations

Nearby Weather Stations

Station Location Temp. Windchill Dew Point Humidity Wind Precip. Elev Updated Type
                   

Watches & Warnings

There are currently no watches in effect.